• Join FlightAware (Why Join?)
  • Login
  • US Flag 
02:39PM EDT


 

Airport Tracker/Info


-or-


 

Live Flight TrackerFlight Track Log ✈ N405ER ✈ 29-Jul-2014 ✈ KVQQ - KDAB

Flight Track Log - Related Links

Times and Time Zones

All times are in EDT time to prevent confusion due to time zone crossing. See the N405ER flight status page for this flight to view local times or setup timezone preferences in your user account.

Time Position Orientation Groundspeed Altitude Reporting Facility
EDT Latitude Longitude Course Direction KTS MPH feet Rate Location/Type
10:19PM 30.1828 -81.8328 133° Southeast 106 122 2,100  Level Jacksonville Center
10:20PM 30.1575 -81.8164 151° Southeast 92 106 2,800 600 Climbing Jacksonville Center
10:22PM 30.1344 -81.7950 141° Southeast 117 135 3,400 540 Climbing Jacksonville Center
10:23PM 30.1114 -81.7808 152° Southeast 103 119 3,900 240 Climbing Jacksonville Center
10:24PM 30.0861 -81.7547 138° Southeast 128 147 4,000  Climbing Jacksonville Center
10:25PM 30.0586 -81.7333 146° Southeast 128 147 4,000  Level Jacksonville Center
10:26PM 30.0314 -81.7097 143° Southeast 119 137 4,000  Level Jacksonville Center
10:27PM 30.0000 -81.6911 153° Southeast 119 137 4,000  Level Jacksonville Center
10:28PM 29.9725 -81.6672 143° Southeast 121 139 4,000  Level Jacksonville Center
10:28PM 29.9494 -81.6508 148° Southeast 122 140 4,000  Level Jacksonville Center
10:29PM 29.9411 -81.6439 144° Southeast 123 142 4,000  Level Jacksonville Center
10:30PM 29.9117 -81.6225 148° Southeast 121 139 4,000  Level Jacksonville Center
10:31PM 29.8864 -81.6014 144° Southeast 120 138 4,000  Level Jacksonville Center
10:32PM 29.8569 -81.5825 151° Southeast 116 133 4,000  Level Jacksonville Center
10:33PM 29.8317 -81.5589 141° Southeast 114 131 4,000  Level Jacksonville Center
10:34PM 29.8042 -81.5403 150° Southeast 114 131 4,000  Level Jacksonville Center
10:35PM 29.7811 -81.5142 135° Southeast 119 137 4,000  Level Jacksonville Center
10:36PM 29.7514 -81.4908 146° Southeast 124 143 4,000  Level Jacksonville Center
10:37PM 29.7219 -81.4647 142° Southeast 127 146 4,000  Level Jacksonville Center
10:38PM 29.6944 -81.4389 141° Southeast 125 144 4,000  Level Jacksonville Center
10:39PM 29.6692 -81.4156 141° Southeast 124 143 4,000  Level Jacksonville Center
10:40PM 29.6397 -81.3894 142° Southeast 124 143 4,000  Level Jacksonville Center
10:41PM 29.6144 -81.3661 141° Southeast 124 143 4,000  Level Jacksonville Center
10:42PM 29.5847 -81.3425 145° Southeast 124 143 4,000  Level Jacksonville Center
10:43PM 29.5575 -81.3192 143° Southeast 122 140 4,000  Level Jacksonville Center
10:44PM 29.5300 -81.2933 141° Southeast 122 140 4,000  Level Jacksonville Center
10:45PM 29.5006 -81.2700 145° Southeast 122 140 4,000  Level Jacksonville Center
10:46PM 29.4731 -81.2442 141° Southeast 124 143 4,000  Level Jacksonville Center
10:47PM 29.4414 -81.2161 142° Southeast 123 142 4,000 -240 Level Jacksonville Center
10:48PM 29.4181 -81.1928 139° Southeast 124 143 3,500 -720 Descending Jacksonville Center
10:49PM 29.3906 -81.1694 144° Southeast 126 145 2,600 -780 Descending Jacksonville Center
10:50PM 29.3611 -81.1436 143° Southeast 122 140 2,000 -420 Descending Jacksonville Center
10:51PM 29.3336 -81.1275 153° Southeast 112 129 1,800 -240 Descending Jacksonville Center
10:52PM 29.3064 -81.1136 156° South 112 129 1,600 -120 Descending Jacksonville Center
10:53PM 29.2811 -81.1022 159° South 105 121 1,600 -120 Level Jacksonville Center
10:54PM 29.2539 -81.0883 156° South 112 129 1,400 -480 Descending Jacksonville Center
10:56PM 29.1992 -81.0656 160° South 96 110 300 -600 Descending Jacksonville Center
10:58PM 29.1799 -81.0581 157° South  Level Estimated
11:05PM 29.1799 -81.0581 147° Southeast  Level Estimated
11:06PM 29.1799 -81.0581 152° Southeast  Level Estimated